Terminal Aerodrome Forecast
Issued by NWS Wilmington, OH

Home | Current Version | Previous Version | Text Only | Print | Product List | Glossary On
Versions: 1 2 3 4 5 6 7 8 9 10 11 12 13 14 15 16 17 18 19 20 21 22 23 24 25
000
FTUS41 KILN 281326 AAA
TAFCVG
TAF AMD
KCVG 281326Z 2813/0118 17008KT 5SM -SHRA BR VCTS SCT025 OVC050CB
      TEMPO 2813/2815 2SM TSRA BR OVC025CB
     FM281500 19009KT 5SM -SHRA VCTS SCT008 OVC012CB
      TEMPO 2815/2819 2SM TSRA OVC007CB
     FM282200 20014KT P6SM VCSH OVC012
     FM010500 20014G23KT 5SM SHRA VCTS OVC008CB=

USA.gov is the U.S. government's official web portal to all federal, state and local government web resources and services.